createdAt,value
2022-11-15T00:00:22.063Z,100407.75
2022-11-15T00:05:41.144Z,100413.81
2022-11-15T00:11:04.100Z,100408.59
2022-11-15T00:16:23.170Z,100393.06
2022-11-15T00:21:42.331Z,100393.94
2022-11-15T00:27:05.461Z,100389.63
2022-11-15T00:32:27.077Z,100390.53
2022-11-15T00:37:47.549Z,100386.16
2022-11-15T00:43:08.329Z,100387.91
2022-11-15T00:48:27.374Z,100387.03
2022-11-15T00:53:46.717Z,100388.78
2022-11-15T00:59:07.218Z,100387.03
2022-11-15T01:04:26.495Z,100380.13
2022-11-15T01:09:45.608Z,100373.25
2022-11-15T01:15:07.338Z,100364.63
2022-11-15T01:20:26.941Z,100357.72
2022-11-15T01:25:46.362Z,100368.09
2022-11-15T01:31:08.399Z,100361.16
2022-11-15T01:36:27.913Z,100355.16
2022-11-15T01:41:46.941Z,100343.00
2022-11-15T01:47:11.039Z,100339.53
2022-11-15T01:52:33.275Z,100340.41
2022-11-15T01:57:55.321Z,100335.22
2022-11-15T02:03:16.266Z,100322.19
2022-11-15T02:08:35.334Z,100317.03
2022-11-15T02:13:54.780Z,100308.41
2022-11-15T02:19:31.429Z,100311.81
2022-11-15T02:25:05.717Z,100304.91
2022-11-15T02:30:37.447Z,100309.31
2022-11-15T02:36:01.612Z,100303.22
2022-11-15T02:41:28.139Z,100299.81
2022-11-15T02:47:10.819Z,100286.00
2022-11-15T02:52:30.360Z,100274.00
2022-11-15T02:57:55.422Z,100274.81
2022-11-15T03:03:30.959Z,100267.88
2022-11-15T03:09:00.031Z,100264.44
2022-11-15T03:14:25.863Z,100260.22
2022-11-15T03:19:49.538Z,100261.94
2022-11-15T03:25:12.421Z,100256.78
2022-11-15T03:30:35.092Z,100249.88
2022-11-15T03:35:56.830Z,100242.09
2022-11-15T03:41:24.463Z,100243.81
2022-11-15T03:46:49.280Z,100247.28
2022-11-15T03:52:12.562Z,100241.28
2022-11-15T03:57:32.016Z,100243.84
2022-11-15T04:02:51.411Z,100235.19
2022-11-15T04:08:11.859Z,100226.59
2022-11-15T04:13:31.409Z,100223.19
2022-11-15T04:19:10.801Z,100223.19
2022-11-15T04:24:31.751Z,100230.91
2022-11-15T04:29:50.963Z,100222.31
2022-11-15T04:35:11.067Z,100217.09
2022-11-15T04:40:31.621Z,100213.69
2022-11-15T04:45:50.860Z,100213.63
2022-11-15T04:51:10.226Z,100210.19
2022-11-15T04:56:30.730Z,100211.94
2022-11-15T05:01:49.936Z,100206.75
2022-11-15T05:07:09.072Z,100206.72
2022-11-15T05:12:30.059Z,100199.00
2022-11-15T05:17:49.106Z,100188.59
2022-11-15T05:23:08.329Z,100201.56
2022-11-15T05:28:29.271Z,100195.59
2022-11-15T05:33:48.572Z,100191.25
2022-11-15T05:39:09.423Z,100192.09
2022-11-15T05:44:30.582Z,100190.34
2022-11-15T05:49:51.566Z,100191.94
2022-11-15T05:55:11.356Z,100195.31
2022-11-15T06:00:32.163Z,100196.13
2022-11-15T06:05:51.395Z,100188.38
2022-11-15T06:11:10.585Z,100191.78
2022-11-15T06:16:31.014Z,100187.59
2022-11-15T06:21:50.259Z,100189.28
2022-11-15T06:27:09.339Z,100191.84
2022-11-15T06:32:31.087Z,100203.16
2022-11-15T06:37:50.159Z,100202.34
2022-11-15T06:43:09.585Z,100209.25
2022-11-15T06:48:30.760Z,100210.06
2022-11-15T06:53:50.032Z,100212.63
2022-11-15T06:59:09.599Z,100204.00
2022-11-15T07:04:29.998Z,100217.72
2022-11-15T07:09:49.178Z,100201.34
2022-11-15T07:15:09.451Z,100213.31
2022-11-15T07:20:30.027Z,100213.97
2022-11-15T07:25:49.030Z,100216.53
2022-11-15T07:31:10.185Z,100225.06
2022-11-15T07:36:30.874Z,100215.63
2022-11-15T07:41:50.565Z,100209.44
2022-11-15T07:47:10.057Z,100212.00
2022-11-15T07:52:30.686Z,100213.66
2022-11-15T07:57:50.061Z,100212.69
2022-11-15T08:03:11.227Z,100214.34
2022-11-15T08:08:32.042Z,100213.47
2022-11-15T08:13:51.303Z,100202.09
2022-11-15T08:19:10.610Z,100195.94
2022-11-15T08:24:31.104Z,100182.91
2022-11-15T08:29:51.826Z,100184.50
2022-11-15T08:35:13.542Z,100192.13
2022-11-15T08:40:34.660Z,100196.34
2022-11-15T08:45:53.878Z,100190.16
2022-11-15T08:51:13.105Z,100192.63
2022-11-15T08:56:33.769Z,100183.84
2022-11-15T09:01:53.128Z,100187.06
2022-11-15T09:07:13.568Z,100181.72
2022-11-15T09:12:34.421Z,100172.91
2022-11-15T09:17:53.873Z,100170.31
2022-11-15T09:23:12.915Z,100164.00
2022-11-15T09:28:35.446Z,100158.59
2022-11-15T09:33:55.031Z,100155.88
2022-11-15T09:39:14.447Z,100158.34
2022-11-15T09:44:44.875Z,100152.03
2022-11-15T09:50:11.840Z,100150.16
2022-11-15T09:55:22.479Z,100144.78
2022-11-15T10:00:48.735Z,100140.22
2022-11-15T10:05:53.104Z,100132.28
2022-11-15T10:11:22.698Z,100131.19
2022-11-15T10:16:39.715Z,100119.63
2022-11-15T10:21:53.588Z,100114.34
2022-11-15T10:26:54.458Z,100108.88
2022-11-15T10:31:56.607Z,100103.34
2022-11-15T10:36:58.760Z,100095.59
2022-11-15T10:42:00.500Z,100074.28
2022-11-15T10:47:23.333Z,100072.00
2022-11-15T10:52:25.190Z,100075.13
2022-11-15T10:57:28.879Z,100072.44
2022-11-15T11:02:34.103Z,100073.06
2022-11-15T11:07:36.947Z,100054.75
2022-11-15T11:12:37.788Z,100049.66
2022-11-15T11:17:53.513Z,100038.66
2022-11-15T11:23:04.882Z,100032.63
2022-11-15T11:28:28.993Z,100028.16
2022-11-15T11:33:35.527Z,100018.38
2022-11-15T11:38:55.870Z,100002.28
2022-11-15T11:44:07.059Z,100005.25
2022-11-15T11:49:14.477Z,99999.13
2022-11-15T11:54:22.181Z,100000.81
2022-11-15T11:59:28.177Z,99994.13
2022-11-15T12:04:33.035Z,99983.72
2022-11-15T12:09:39.032Z,99979.31
2022-11-15T12:14:45.893Z,99974.25
2022-11-15T12:19:48.157Z,99966.34
2022-11-15T12:24:55.621Z,99955.25
2022-11-15T12:30:00.372Z,99948.22
2022-11-15T12:35:03.962Z,99942.22
2022-11-15T12:40:32.448Z,99926.31
2022-11-15T12:45:35.708Z,99919.59
2022-11-15T12:50:59.119Z,99923.75
2022-11-15T12:56:22.707Z,99911.78
2022-11-15T13:02:01.915Z,99912.84
2022-11-15T13:07:06.096Z,99903.53
2022-11-15T13:12:14.593Z,99906.13
2022-11-15T13:17:31.863Z,99894.25
2022-11-15T13:23:00.242Z,99897.75
2022-11-15T13:28:07.768Z,99892.59
2022-11-15T13:33:15.739Z,99895.31
2022-11-15T13:38:27.214Z,99896.41
2022-11-15T13:43:38.041Z,99884.56
2022-11-15T13:48:39.013Z,99891.78
2022-11-15T13:53:47.710Z,99883.56
2022-11-15T13:58:49.063Z,99881.38
2022-11-15T14:03:53.616Z,99880.09
2022-11-15T14:09:16.629Z,99871.69
2022-11-15T14:14:17.522Z,99869.22
2022-11-15T14:19:40.579Z,99872.00
2022-11-15T14:24:44.415Z,99878.53
2022-11-15T14:29:45.210Z,99878.84
2022-11-15T14:34:46.314Z,99873.13
2022-11-15T14:39:48.767Z,99868.00
2022-11-15T14:44:49.583Z,99857.06
2022-11-15T14:49:50.390Z,99857.44
2022-11-15T14:54:52.928Z,99857.94
2022-11-15T14:59:53.875Z,99858.94
2022-11-15T15:04:55.489Z,99859.16
2022-11-15T15:10:24.578Z,99860.00
2022-11-15T15:15:22.289Z,99866.91
2022-11-15T15:20:23.167Z,99859.03
2022-11-15T15:25:28.917Z,99851.09
2022-11-15T15:30:31.726Z,99847.31
2022-11-15T15:35:35.442Z,99841.75
2022-11-15T15:40:37.790Z,99845.72
2022-11-15T15:45:40.401Z,99846.75
2022-11-15T15:50:43.762Z,99846.13
2022-11-15T15:55:46.493Z,99853.31
2022-11-15T16:00:47.295Z,99847.31
2022-11-15T16:05:48.230Z,99849.16
2022-11-15T16:10:51.612Z,99856.16
2022-11-15T16:15:55.185Z,99851.00
2022-11-15T16:20:57.726Z,99851.06
2022-11-15T16:25:59.947Z,99839.06
2022-11-15T16:31:05.361Z,99845.16
2022-11-15T16:36:08.477Z,99851.34
2022-11-15T16:41:10.649Z,99848.72
2022-11-15T16:46:17.993Z,99846.19
2022-11-15T16:51:20.570Z,99840.84
2022-11-15T16:56:26.034Z,99832.19
2022-11-15T17:01:28.655Z,99828.00
2022-11-15T17:06:29.590Z,99823.75
2022-11-15T17:11:31.757Z,99811.69
2022-11-15T17:16:34.442Z,99805.78
2022-11-15T17:21:35.238Z,99802.53
2022-11-15T17:26:40.519Z,99804.25
2022-11-15T17:31:44.332Z,99810.25
2022-11-15T17:36:45.606Z,99803.28
2022-11-15T17:41:48.135Z,99806.03
2022-11-15T17:46:48.929Z,99800.00
2022-11-15T17:51:50.293Z,99801.72
2022-11-15T17:56:52.552Z,99805.16
2022-11-15T18:01:54.006Z,99801.81
2022-11-15T18:06:55.362Z,99794.94
2022-11-15T18:11:58.646Z,99786.38
2022-11-15T18:16:59.493Z,99783.78
2022-11-15T18:22:01.365Z,99778.63
2022-11-15T18:27:05.534Z,99769.97
2022-11-15T18:32:11.630Z,99764.00
2022-11-15T18:37:12.638Z,99763.19
2022-11-15T18:42:15.395Z,99757.97
2022-11-15T18:47:16.211Z,99754.53
2022-11-15T18:52:17.006Z,99749.44
2022-11-15T18:57:19.232Z,99740.03
2022-11-15T19:02:20.103Z,99744.38
2022-11-15T19:07:20.872Z,99741.84
2022-11-15T19:12:23.135Z,99747.88
2022-11-15T19:17:23.988Z,99746.03
2022-11-15T19:22:25.111Z,99749.44
2022-11-15T19:27:27.393Z,99741.81
2022-11-15T19:32:29.270Z,99734.09
2022-11-15T19:37:30.241Z,99731.56
2022-11-15T19:42:32.374Z,99739.31
2022-11-15T19:47:33.181Z,99739.25
2022-11-15T19:52:34.061Z,99736.66
2022-11-15T19:57:36.287Z,99735.06
2022-11-15T20:02:37.081Z,99727.34
2022-11-15T20:07:37.986Z,99718.72
2022-11-15T20:12:40.192Z,99718.81
2022-11-15T20:17:41.031Z,99715.34
2022-11-15T20:22:41.831Z,99712.72
2022-11-15T20:27:44.106Z,99715.38
2022-11-15T20:32:44.961Z,99720.44
2022-11-15T20:37:46.768Z,99717.00
2022-11-15T20:42:48.956Z,99712.75
2022-11-15T20:47:49.773Z,99717.88
2022-11-15T20:52:50.646Z,99704.94
2022-11-15T20:57:53.168Z,99698.97
2022-11-15T21:02:54.041Z,99694.59
2022-11-15T21:07:54.843Z,99695.47
2022-11-15T21:12:57.114Z,99690.31
2022-11-15T21:17:57.969Z,99684.28
2022-11-15T21:22:58.736Z,99673.09
2022-11-15T21:28:00.936Z,99662.75
2022-11-15T21:33:01.704Z,99666.09
2022-11-15T21:38:02.542Z,99675.63
2022-11-15T21:43:04.687Z,99661.03
2022-11-15T21:48:06.188Z,99657.59
2022-11-15T21:53:06.982Z,99660.97
2022-11-15T21:58:09.135Z,99652.41
2022-11-15T22:03:09.939Z,99656.72
2022-11-15T22:08:10.810Z,99653.28
2022-11-15T22:13:13.010Z,99658.44
2022-11-15T22:18:14.030Z,99646.38
2022-11-15T22:23:14.875Z,99635.28
2022-11-15T22:28:17.338Z,99624.88
2022-11-15T22:33:19.997Z,99619.69
2022-11-15T22:38:21.320Z,99616.16
2022-11-15T22:43:25.880Z,99595.41
2022-11-15T22:48:28.245Z,99592.03
2022-11-15T22:53:30.419Z,99586.03
2022-11-15T22:58:33.890Z,99580.84
2022-11-15T23:03:35.672Z,99573.97
2022-11-15T23:08:37.008Z,99571.44
2022-11-15T23:13:39.425Z,99573.94
2022-11-15T23:18:42.252Z,99563.63
2022-11-15T23:23:43.416Z,99554.97
2022-11-15T23:28:45.590Z,99558.53
2022-11-15T23:33:58.502Z,99540.41
2022-11-15T23:38:59.355Z,99541.31
2022-11-15T23:44:01.654Z,99540.44
2022-11-15T23:49:02.702Z,99528.34
2022-11-15T23:54:03.562Z,99520.59
2022-11-15T23:59:06.009Z,99522.28
